To NAV CANADA Home Page Login to a new session Search on AWWS site Feedback and Comments Disclaimer Vers la page française équivalente Tips FAQ What's new on the site To the Forecasts and Observations / NOTAM section To "File a Flight Plan" website Publications and other links Update of the User's profile FIC Telephone Numbers My Weather Data Folder Route Weather Data Regional Weather Data Local Weather Data To the Forecasts and Observations / NOTAM section
Request Generated 10/18/2017 at 03:45:16 UTC . Weather information available at that time is displayed.

METAR/TAF

KITCHENER/WATERLOO/ON    (show WxCam)

METAR CYKF 180300Z AUTO 24012KT 9SM CLR 12/06 A3015 RMK SLP213=
METAR CYKF 180200Z AUTO 23012KT 9SM CLR 13/07 A3014 RMK SLP210=
METAR CYKF 180100Z AUTO 22012G17KT 9SM CLR 13/07 A3012 RMK SLP204=

TAF CYKF 180138Z 1802/1814 22012KT P6SM SKC
FM180700 25006KT P6SM SKC PROB30 1807/1814 1SM BR
RMK FCST BASED ON AUTO OBS. NXT FCST BY 180800Z=
Your time UTC time
Weather data provided by Environment Canada and NAV CANADA